Terminal Aerodrome Forecast
Issued by NWS Cleveland, OH

Home | Current Version | Previous Version | Graphics & Text | Print | Product List | Glossary On
Versions: 1 2 3 4 5 6 7 8 9 10 11 12 13 14 15 16 17 18 19 20
000
FTUS41 KCLE 020521
TAFCLE
TAF
KCLE 020521Z 0206/0312 02006KT P6SM SCT050 OVC250
     FM020900 04005KT P6SM BKN035
      TEMPO 0209/0213 5SM BR
     FM021500 02008KT P6SM SCT035
      TEMPO 0215/0218 BKN035
     FM022000 02012KT P6SM SCT250
     FM030100 02005KT P6SM SKC=

USA.gov is the U.S. government's official web portal to all federal, state and local government web resources and services.